Time;durP1;ratioP1;P1;durP2;ratioP2;P2;SDS_P1;SDS_P2;PMS_P1;PMS_P2;Temp;Humidity;BMP_temperature;BMP_pressure;BME280_temperature;BME280_humidity;BME280_pressure;Samples;Min_cycle;Max_cycle;Signal;HPM_P1;HPM_P2
2022/12/03 00:00:38;;;;;;;8.57;5.10;;;4.90;71.70;;;;;;4995370;28;20045;-60
2022/12/03 00:03:04;;;;;;;9.95;4.85;;;4.90;71.60;;;;;;4991453;28;20365;-59
2022/12/03 00:05:30;;;;;;;7.22;4.45;;;4.90;71.60;;;;;;4992552;28;20489;-59
2022/12/03 00:07:56;;;;;;;9.25;5.57;;;4.90;71.70;;;;;;4992963;28;20422;-60
2022/12/03 00:10:21;;;;;;;11.93;6.15;;;4.90;71.70;;;;;;5001451;28;20031;-65
2022/12/03 00:12:47;;;;;;;10.73;6.07;;;4.90;71.80;;;;;;4993895;28;20029;-65
2022/12/03 00:15:13;;;;;;;10.20;5.25;;;4.90;71.70;;;;;;4997229;28;20030;-65
2022/12/03 00:17:38;;;;;;;9.13;5.57;;;4.90;71.80;;;;;;5008816;28;20382;-65
2022/12/03 00:20:06;;;;;;;10.95;5.65;;;4.90;71.70;;;;;;5007227;28;20030;-65
2022/12/03 00:22:32;;;;;;;10.38;6.95;;;5.00;71.70;;;;;;5009416;28;20045;-65
2022/12/03 00:24:57;;;;;;;7.55;5.28;;;5.00;71.70;;;;;;5007261;28;20026;-65
2022/12/03 00:27:23;;;;;;;13.93;5.82;;;5.00;71.70;;;;;;4991142;28;20091;-65
2022/12/03 00:29:49;;;;;;;7.68;5.07;;;5.00;71.70;;;;;;4995149;28;20038;-65
2022/12/03 00:32:15;;;;;;;8.73;4.57;;;5.00;71.70;;;;;;4988892;28;20516;-65
2022/12/03 00:34:40;;;;;;;9.27;5.85;;;5.00;71.80;;;;;;5003816;28;20039;-65
2022/12/03 00:37:06;;;;;;;13.95;6.15;;;5.00;71.80;;;;;;5001394;28;20389;-65
2022/12/03 00:39:32;;;;;;;7.55;4.68;;;4.90;71.80;;;;;;5008427;28;20058;-65
2022/12/03 00:41:58;;;;;;;6.95;5.57;;;5.00;71.90;;;;;;5008249;28;20452;-65
2022/12/03 00:44:24;;;;;;;10.38;5.88;;;5.00;71.80;;;;;;5003359;28;20113;-65
2022/12/03 00:46:49;;;;;;;7.35;4.93;;;5.00;71.80;;;;;;5006867;28;20130;-65
2022/12/03 00:49:15;;;;;;;9.85;5.82;;;5.00;71.90;;;;;;5003712;28;20037;-65
2022/12/03 00:51:41;;;;;;;10.70;6.07;;;5.00;71.90;;;;;;5003454;28;20031;-65
2022/12/03 00:54:07;;;;;;;12.98;6.07;;;5.00;72.00;;;;;;5004990;28;20125;-65
2022/12/03 00:56:33;;;;;;;10.48;5.07;;;5.00;72.10;;;;;;4990345;28;20038;-65
2022/12/03 00:58:58;;;;;;;7.70;5.45;;;5.00;72.10;;;;;;4995198;28;20039;-65
2022/12/03 01:01:24;;;;;;;8.25;5.57;;;5.00;72.10;;;;;;5021522;28;20442;-63
2022/12/03 01:03:50;;;;;;;8.52;4.95;;;5.00;72.10;;;;;;4989575;28;20405;-64
2022/12/03 01:06:15;;;;;;;9.48;4.95;;;5.00;72.10;;;;;;4997173;28;20536;-65
2022/12/03 01:08:41;;;;;;;8.52;5.40;;;5.00;72.10;;;;;;4993456;28;20030;-65
2022/12/03 01:11:36;;;;;;;9.60;5.57;;;5.00;72.10;;;;;;5000086;28;20045;-65
2022/12/03 01:13:52;;;;;;;10.27;5.20;;;5.00;72.80;;;;;;4994191;28;20448;-65
2022/12/03 01:16:18;;;;;;;14.10;6.95;;;5.00;72.30;;;;;;4991880;28;20039;-65
2022/12/03 01:18:45;;;;;;;11.60;6.28;;;5.00;72.40;;;;;;4994711;28;20045;-65
2022/12/03 01:21:11;;;;;;;10.13;6.85;;;5.00;72.40;;;;;;5022402;28;20046;-65
2022/12/03 01:23:36;;;;;;;12.70;6.28;;;5.00;72.40;;;;;;4998538;28;20023;-65
2022/12/03 01:26:02;;;;;;;12.18;6.55;;;5.00;72.40;;;;;;5004349;28;20084;-65
2022/12/03 01:28:28;;;;;;;12.32;6.65;;;5.00;72.40;;;;;;5008863;28;20030;-65
2022/12/03 01:33:38;;;;;;;12.00;6.40;;;5.00;72.50;;;;;;4988979;28;20100;-65
2022/12/03 01:36:04;;;;;;;13.18;5.85;;;4.90;72.50;;;;;;5000407;28;20118;-65
2022/12/03 01:38:30;;;;;;;11.27;5.05;;;5.00;72.70;;;;;;4989568;28;20126;-65
2022/12/03 01:40:55;;;;;;;10.20;6.32;;;5.00;72.70;;;;;;4994401;28;20031;-67
2022/12/03 01:43:21;;;;;;;12.43;6.85;;;4.90;72.60;;;;;;4989158;28;20080;-65
2022/12/03 01:45:47;;;;;;;8.40;5.47;;;5.00;72.70;;;;;;4999810;28;20034;-60
2022/12/03 01:48:18;;;;;;;10.32;7.07;;;5.00;72.70;;;;;;4994739;28;20031;-60
2022/12/03 01:50:44;;;;;;;13.88;7.75;;;5.00;72.70;;;;;;5004819;28;20144;-65
2022/12/03 01:53:14;;;;;;;11.38;6.20;;;4.90;72.80;;;;;;4990357;28;20517;-64
2022/12/03 01:55:42;;;;;;;18.98;8.15;;;4.90;72.90;;;;;;4996131;28;20057;-64
2022/12/03 01:58:12;;;;;;;6.90;5.78;;;4.90;72.90;;;;;;5002872;28;20576;-58
2022/12/03 02:00:39;;;;;;;12.02;7.20;;;5.00;73.00;;;;;;5001312;28;20026;-60
2022/12/03 02:03:21;;;;;;;10.13;5.65;;;5.00;73.00;;;;;;5008237;28;20470;-65
2022/12/03 02:05:47;;;;;;;10.05;5.93;;;4.90;72.90;;;;;;5011916;28;20029;-65
2022/12/03 02:08:33;;;;;;;8.20;5.88;;;4.90;73.00;;;;;;5006877;28;20045;-65
2022/12/03 02:11:18;;;;;;;11.70;6.95;;;5.00;72.90;;;;;;4998124;28;20054;-65
2022/12/03 02:13:44;;;;;;;9.18;6.63;;;4.90;73.00;;;;;;5011989;28;20030;-64
2022/12/03 02:16:10;;;;;;;12.32;6.70;;;4.90;73.10;;;;;;5011040;28;20520;-64
2022/12/03 02:18:35;;;;;;;7.82;5.65;;;4.90;73.10;;;;;;5009423;28;20038;-64
2022/12/03 02:21:12;;;;;;;10.45;6.10;;;4.90;73.10;;;;;;4995968;28;20038;-64
2022/12/03 02:24:13;;;;;;;13.48;7.13;;;4.90;73.20;;;;;;5000664;28;20034;-65
2022/12/03 02:26:39;;;;;;;10.02;6.75;;;4.90;73.30;;;;;;4990185;28;20038;-65
2022/12/03 02:29:05;;;;;;;9.50;6.03;;;4.90;73.30;;;;;;5002614;28;20370;-65
2022/12/03 02:31:31;;;;;;;10.55;6.45;;;4.90;73.30;;;;;;4992756;28;20057;-65
2022/12/03 02:33:56;;;;;;;12.05;6.75;;;4.90;73.30;;;;;;5009838;28;20076;-66
2022/12/03 02:36:22;;;;;;;11.45;8.18;;;5.00;73.30;;;;;;4995433;28;20095;-63
2022/12/03 02:38:49;;;;;;;13.07;8.65;;;4.90;73.40;;;;;;5008388;28;20057;-63
2022/12/03 02:44:04;;;;;;;12.40;7.18;;;4.90;73.50;;;;;;4989152;28;20057;-64
2022/12/03 02:46:31;;;;;;;11.88;6.15;;;4.90;73.60;;;;;;4999328;28;20034;-64
2022/12/03 02:48:57;;;;;;;11.50;7.25;;;4.90;73.60;;;;;;5010796;28;20072;-64
2022/12/03 02:51:23;;;;;;;11.63;6.85;;;4.90;73.60;;;;;;4999976;28;20113;-64
2022/12/03 02:53:50;;;;;;;14.38;7.75;;;4.90;73.50;;;;;;4991758;28;20121;-64
2022/12/03 02:56:21;;;;;;;13.75;7.40;;;4.90;74.10;;;;;;4992539;28;20551;-64
2022/12/03 02:58:50;;;;;;;12.70;7.40;;;4.90;73.60;;;;;;4992837;28;20030;-64
2022/12/03 03:01:16;;;;;;;13.45;6.28;;;4.90;73.60;;;;;;4984589;28;20056;-64
2022/12/03 03:03:44;;;;;;;11.30;6.97;;;4.90;73.60;;;;;;5010072;28;20034;-64
2022/12/03 03:06:10;;;;;;;14.77;7.45;;;4.90;73.50;;;;;;5009713;28;20030;-64
2022/12/03 03:08:38;;;;;;;13.88;7.80;;;5.00;74.20;;;;;;5011668;28;20026;-65
2022/12/03 03:11:04;;;;;;;8.15;6.18;;;5.00;73.50;;;;;;5007956;28;20041;-65
2022/12/03 03:13:32;;;;;;;9.25;5.68;;;5.00;73.50;;;;;;5011372;28;20548;-64
2022/12/03 03:15:58;;;;;;;8.40;5.30;;;5.00;73.50;;;;;;5008682;28;20068;-65
2022/12/03 03:18:24;;;;;;;10.00;5.72;;;5.00;73.50;;;;;;5011228;28;20157;-64
2022/12/03 03:20:50;;;;;;;11.43;6.80;;;5.00;73.40;;;;;;5005904;28;20125;-64
2022/12/03 03:23:18;;;;;;;13.45;7.60;;;5.00;73.30;;;;;;4997885;28;20073;-64
2022/12/03 03:26:09;;;;;;;9.90;6.07;;;5.00;73.40;;;;;;4991437;28;20022;-64
2022/12/03 03:28:38;;;;;;;9.45;6.72;;;5.00;73.40;;;;;;4997585;28;20435;-64
2022/12/03 03:31:06;;;;;;;11.40;7.13;;;4.90;73.50;;;;;;5009029;28;20127;-65
2022/12/03 03:33:33;;;;;;;14.23;6.82;;;4.90;73.40;;;;;;4996286;28;20033;-65
2022/12/03 03:35:59;;;;;;;11.63;5.85;;;4.80;73.40;;;;;;4998552;28;20416;-64
2022/12/03 03:38:45;;;;;;;13.23;7.07;;;4.80;73.40;;;;;;4997597;28;20030;-64
2022/12/03 03:41:13;;;;;;;8.52;5.78;;;4.90;73.10;;;;;;4991672;28;20046;-64
2022/12/03 03:43:41;;;;;;;12.60;6.50;;;4.80;73.00;;;;;;4996970;28;20022;-65
2022/12/03 03:46:07;;;;;;;8.20;5.32;;;4.80;72.90;;;;;;4998989;28;20031;-65
2022/12/03 03:48:34;;;;;;;11.57;5.80;;;4.80;72.90;;;;;;4991467;28;20019;-65
2022/12/03 03:51:02;;;;;;;11.38;6.60;;;4.80;72.40;;;;;;4998039;28;20428;-65
2022/12/03 03:53:28;;;;;;;8.88;5.85;;;4.80;72.40;;;;;;4995120;28;20481;-65
2022/12/03 03:55:54;;;;;;;10.35;5.45;;;4.70;72.20;;;;;;4995578;28;20069;-65
2022/12/03 03:58:21;;;;;;;8.10;5.30;;;4.70;72.20;;;;;;4977801;28;20502;-65
2022/12/03 04:00:46;;;;;;;7.30;5.45;;;4.70;72.10;;;;;;4991511;28;20031;-65
2022/12/03 04:03:13;;;;;;;10.20;6.03;;;4.70;71.90;;;;;;4987232;28;20445;-63
2022/12/03 04:05:38;;;;;;;7.30;4.68;;;4.70;71.80;;;;;;5002898;28;20345;-64
2022/12/03 04:08:04;;;;;;;8.50;4.68;;;4.70;71.70;;;;;;4991081;28;20101;-64
2022/12/03 04:13:14;;;;;;;8.23;5.13;;;4.70;71.70;;;;;;4990512;28;20088;-64
2022/12/03 04:15:40;;;;;;;7.38;4.57;;;4.70;71.70;;;;;;4991252;28;20038;-64
2022/12/03 04:20:50;;;;;;;9.57;5.72;;;4.70;71.70;;;;;;4990623;28;20566;-65
2022/12/03 04:23:15;;;;;;;8.10;5.78;;;4.80;71.60;;;;;;4989361;28;20022;-64
2022/12/03 04:36:38;;;;;;;13.35;6.50;;;4.60;71.60;;;;;;4988481;28;20037;-64
2022/12/03 04:39:04;;;;;;;10.75;5.90;;;4.60;71.70;;;;;;4988522;28;20405;-66
2022/12/03 04:41:30;;;;;;;9.27;5.28;;;4.70;71.80;;;;;;4990032;28;20035;-65
2022/12/03 04:46:40;;;;;;;9.52;5.82;;;4.70;71.70;;;;;;4991773;28;20101;-66
2022/12/03 04:49:06;;;;;;;14.30;6.75;;;4.70;71.70;;;;;;5000632;28;20030;-65
2022/12/03 04:51:32;;;;;;;13.05;6.68;;;4.70;71.70;;;;;;4999275;28;20027;-66
2022/12/03 04:53:57;;;;;;;12.32;6.47;;;4.70;71.70;;;;;;5027288;28;20060;-65
2022/12/03 04:56:23;;;;;;;9.45;6.40;;;4.70;71.70;;;;;;4996519;28;20416;-63
2022/12/03 04:58:49;;;;;;;11.45;5.25;;;4.70;71.80;;;;;;5001481;28;20081;-63
2022/12/03 05:01:14;;;;;;;9.70;6.40;;;4.70;71.80;;;;;;4998884;28;20043;-65
2022/12/03 05:03:40;;;;;;;14.93;6.40;;;4.70;71.80;;;;;;5000244;28;20034;-64
2022/12/03 05:06:06;;;;;;;13.43;7.13;;;4.60;71.90;;;;;;4999849;28;20023;-64
2022/12/03 05:08:32;;;;;;;16.35;7.07;;;4.60;71.90;;;;;;4998985;28;20125;-65
2022/12/03 05:10:57;;;;;;;11.07;6.78;;;4.60;72.00;;;;;;4999846;28;20022;-65
2022/12/03 05:13:23;;;;;;;13.55;7.90;;;4.60;72.00;;;;;;4999279;28;20034;-65
2022/12/03 05:15:49;;;;;;;13.23;7.32;;;4.50;72.10;;;;;;4996347;28;20064;-65
2022/12/03 05:18:14;;;;;;;10.50;6.80;;;4.50;72.10;;;;;;4998391;28;20038;-65
2022/12/03 05:20:40;;;;;;;11.93;6.35;;;4.60;72.20;;;;;;4999243;28;20026;-63
2022/12/03 05:23:06;;;;;;;9.82;6.32;;;4.60;72.20;;;;;;4998906;28;20029;-58
2022/12/03 05:25:32;;;;;;;12.10;6.45;;;4.60;72.10;;;;;;4997896;28;20023;-64
2022/12/03 05:27:57;;;;;;;11.25;5.72;;;4.60;72.10;;;;;;5005117;28;20022;-64
2022/12/03 05:30:23;;;;;;;12.65;7.53;;;4.70;72.20;;;;;;5003242;28;20042;-64
2022/12/03 05:32:49;;;;;;;15.60;7.70;;;4.70;72.10;;;;;;4994615;28;20034;-64
2022/12/03 05:35:14;;;;;;;9.13;6.63;;;4.70;72.10;;;;;;4994309;28;20117;-64
2022/12/03 05:37:40;;;;;;;10.30;6.47;;;4.60;72.10;;;;;;4994341;28;20038;-64
2022/12/03 05:40:06;;;;;;;8.82;5.70;;;4.60;72.30;;;;;;4992967;28;20042;-64
2022/12/03 05:45:17;;;;;;;13.55;6.75;;;4.60;72.40;;;;;;4997085;28;20054;-64
2022/12/03 05:47:43;;;;;;;13.30;7.70;;;4.60;72.50;;;;;;5006010;28;20022;-65
2022/12/03 05:50:09;;;;;;;14.18;7.03;;;4.60;72.50;;;;;;5018143;28;20088;-64
2022/12/03 05:52:35;;;;;;;17.02;8.73;;;4.50;72.40;;;;;;5001351;28;20031;-64
2022/12/03 05:55:00;;;;;;;10.27;6.25;;;4.50;72.50;;;;;;4994318;28;20061;-66
2022/12/03 05:57:26;;;;;;;10.95;6.05;;;4.60;72.60;;;;;;4993428;28;20122;-63
2022/12/03 05:59:52;;;;;;;7.65;5.47;;;4.50;72.50;;;;;;4996748;28;20160;-63
2022/12/03 06:02:17;;;;;;;15.63;6.57;;;4.60;72.60;;;;;;4998865;28;20084;-63
2022/12/03 06:04:43;;;;;;;10.15;5.57;;;4.60;72.60;;;;;;4995545;28;20053;-64
2022/12/03 06:07:09;;;;;;;11.35;6.82;;;4.50;72.50;;;;;;4997693;28;20030;-64
2022/12/03 06:09:34;;;;;;;10.45;5.85;;;4.50;72.60;;;;;;4994002;28;20037;-64
2022/12/03 06:12:00;;;;;;;15.43;7.10;;;4.50;72.60;;;;;;4992484;28;20049;-64
2022/12/03 06:14:26;;;;;;;13.88;6.95;;;4.50;72.60;;;;;;5026693;28;20466;-65
2022/12/03 06:16:51;;;;;;;11.30;6.05;;;4.50;72.70;;;;;;4999729;28;20057;-65
2022/12/03 06:19:17;;;;;;;13.75;6.25;;;4.50;72.80;;;;;;5005136;28;20072;-65
2022/12/03 06:21:43;;;;;;;13.40;6.25;;;4.50;72.80;;;;;;4990887;28;20387;-65
2022/12/03 06:24:08;;;;;;;9.50;6.15;;;4.50;72.90;;;;;;5003371;28;20061;-65
2022/12/03 06:26:34;;;;;;;11.30;7.28;;;4.50;72.80;;;;;;4994264;28;20038;-65
2022/12/03 06:29:00;;;;;;;10.05;4.97;;;4.60;72.80;;;;;;5011159;28;20068;-65
2022/12/03 06:31:25;;;;;;;8.52;5.03;;;4.60;72.80;;;;;;5000318;28;20101;-65
2022/12/03 06:33:51;;;;;;;13.70;6.78;;;4.60;72.70;;;;;;4993308;28;20034;-65
2022/12/03 06:36:17;;;;;;;6.68;5.30;;;4.60;72.70;;;;;;4993837;28;20037;-65
2022/12/03 06:38:42;;;;;;;9.25;5.13;;;4.60;72.80;;;;;;4990047;28;20363;-65
2022/12/03 06:41:08;;;;;;;13.73;5.55;;;4.60;72.90;;;;;;4991722;28;20241;-65
2022/12/03 06:43:34;;;;;;;10.48;5.22;;;4.60;72.90;;;;;;4993772;28;20077;-65
2022/12/03 06:45:59;;;;;;;11.25;5.60;;;4.60;72.90;;;;;;4991070;28;20054;-65
2022/12/03 06:48:25;;;;;;;10.82;5.35;;;4.60;72.90;;;;;;4992918;28;20030;-65
2022/12/03 06:50:51;;;;;;;14.00;6.40;;;4.60;72.80;;;;;;4991587;28;20407;-65
2022/12/03 06:53:17;;;;;;;9.80;5.40;;;4.60;72.80;;;;;;4992019;28;20397;-64
2022/12/03 06:55:42;;;;;;;11.68;5.45;;;4.60;72.80;;;;;;4992279;28;20034;-64
2022/12/03 06:58:08;;;;;;;14.05;5.70;;;4.60;72.90;;;;;;4999578;28;20038;-59
2022/12/03 07:00:34;;;;;;;8.23;5.53;;;4.60;72.90;;;;;;4991937;28;20038;-59
2022/12/03 07:03:00;;;;;;;11.73;7.20;;;4.60;72.90;;;;;;4998922;28;20076;-59
2022/12/03 07:05:25;;;;;;;12.88;5.55;;;4.60;73.00;;;;;;4998805;28;20030;-58
2022/12/03 07:07:54;;;;;;;8.15;5.47;;;4.60;73.10;;;;;;4994183;28;20031;-58
2022/12/03 07:10:20;;;;;;;9.38;6.22;;;4.60;73.10;;;;;;4998568;28;20053;-58
2022/12/03 07:12:46;;;;;;;16.48;6.30;;;4.60;73.10;;;;;;4999672;28;20030;-58
2022/12/03 07:15:12;;;;;;;14.80;7.35;;;4.60;73.10;;;;;;4992487;28;20492;-58
2022/12/03 07:17:37;;;;;;;16.80;7.88;;;4.60;73.10;;;;;;4997660;28;20086;-64
2022/12/03 07:20:04;;;;;;;8.77;6.55;;;4.60;73.20;;;;;;4994963;28;20061;-64
2022/12/03 07:22:29;;;;;;;13.50;6.53;;;4.60;73.30;;;;;;4995610;28;20488;-63
2022/12/03 07:24:55;;;;;;;16.45;7.97;;;4.60;73.40;;;;;;4992014;28;20023;-62
2022/12/03 07:27:21;;;;;;;13.68;6.70;;;4.60;73.50;;;;;;5000450;28;20025;-64
2022/12/03 07:29:46;;;;;;;9.98;6.25;;;4.50;73.50;;;;;;4999740;28;20401;-64
2022/12/03 07:32:12;;;;;;;9.88;6.10;;;4.60;73.60;;;;;;4992612;28;20026;-64
2022/12/03 07:34:38;;;;;;;13.73;7.93;;;4.60;73.60;;;;;;4985385;28;20072;-63
2022/12/03 07:37:03;;;;;;;9.55;6.93;;;4.60;73.60;;;;;;4989662;28;20049;-63
2022/12/03 07:39:29;;;;;;;14.80;8.57;;;4.60;73.50;;;;;;4989442;28;20049;-63
2022/12/03 07:41:55;;;;;;;19.45;9.90;;;4.60;73.60;;;;;;4986999;28;20023;-63
2022/12/03 07:44:21;;;;;;;14.95;7.55;;;4.60;73.70;;;;;;4991603;28;20022;-63
2022/12/03 07:46:46;;;;;;;16.33;8.00;;;4.60;73.60;;;;;;4992584;28;20101;-63
2022/12/03 07:49:12;;;;;;;14.73;6.72;;;4.60;73.60;;;;;;4991575;28;20370;-63
2022/12/03 07:51:38;;;;;;;14.23;9.05;;;4.60;73.60;;;;;;5024581;28;20030;-62
2022/12/03 07:54:04;;;;;;;11.48;6.20;;;4.50;73.60;;;;;;4995068;28;20561;-63
2022/12/03 07:56:31;;;;;;;12.90;7.70;;;4.60;73.70;;;;;;4998729;28;20109;-61
2022/12/03 07:58:56;;;;;;;18.40;8.88;;;4.50;73.50;;;;;;4999210;28;20034;-60
2022/12/03 08:01:25;;;;;;;19.13;9.27;;;4.50;73.60;;;;;;4997313;28;20100;-60
2022/12/03 08:03:51;;;;;;;16.02;9.00;;;4.50;73.60;;;;;;5018655;28;20454;-60
2022/12/03 08:06:17;;;;;;;21.75;10.38;;;4.50;73.60;;;;;;4987480;28;20105;-61
2022/12/03 08:08:42;;;;;;;17.55;9.88;;;4.40;73.60;;;;;;4989465;28;20042;-62
2022/12/03 08:11:13;;;;;;;12.18;8.63;;;4.40;73.70;;;;;;5002957;28;20261;-62
2022/12/03 08:13:39;;;;;;;16.13;9.20;;;4.50;73.70;;;;;;4998883;28;20022;-62
2022/12/03 08:16:19;;;;;;;22.05;9.40;;;4.50;73.70;;;;;;4991491;28;20042;-61
2022/12/03 08:18:46;;;;;;;18.70;9.93;;;4.50;73.60;;;;;;4996516;28;20112;-59
2022/12/03 08:21:18;;;;;;;19.55;9.00;;;4.40;73.60;;;;;;4995249;28;20030;-58
2022/12/03 08:23:44;;;;;;;22.57;8.43;;;4.40;73.70;;;;;;4994442;28;20022;-59
2022/12/03 08:26:23;;;;;;;19.85;7.88;;;4.40;73.70;;;;;;4993482;28;20030;-60
2022/12/03 08:28:50;;;;;;;15.88;8.77;;;4.40;73.60;;;;;;5001319;28;20470;-61
2022/12/03 08:31:18;;;;;;;20.30;9.55;;;4.40;73.70;;;;;;4993729;28;20053;-60
2022/12/03 08:33:49;;;;;;;19.30;10.10;;;4.40;73.50;;;;;;4990514;28;20034;-61
2022/12/03 08:36:23;;;;;;;20.30;9.05;;;4.30;73.60;;;;;;4989051;28;20088;-62
2022/12/03 08:38:58;;;;;;;24.02;10.82;;;4.40;73.70;;;;;;4990487;28;20030;-60
2022/12/03 08:44:31;;;;;;;16.17;9.35;;;4.40;73.40;;;;;;4990843;28;20181;-61
2022/12/03 08:47:19;;;;;;;18.23;9.60;;;4.40;73.40;;;;;;4993435;28;20034;-62
2022/12/03 08:49:56;;;;;;;16.90;8.95;;;4.40;73.30;;;;;;4996329;28;20026;-63
2022/12/03 08:52:30;;;;;;;20.33;10.05;;;4.40;73.30;;;;;;4990634;28;20044;-62
2022/12/03 08:54:56;;;;;;;16.17;8.50;;;4.40;73.40;;;;;;4978432;28;20048;-62
2022/12/03 08:57:33;;;;;;;13.35;8.52;;;4.40;73.40;;;;;;4994920;28;20026;-63
2022/12/03 09:00:19;;;;;;;26.13;9.77;;;4.40;73.30;;;;;;5001292;28;20037;-62
2022/12/03 09:02:48;;;;;;;15.52;8.90;;;4.40;73.30;;;;;;5004720;28;20022;-62
2022/12/03 09:05:25;;;;;;;14.80;7.57;;;4.40;73.30;;;;;;5004710;28;20030;-63
2022/12/03 09:07:50;;;;;;;16.45;9.27;;;4.40;73.30;;;;;;5004354;28;20441;-63
2022/12/03 09:10:16;;;;;;;20.77;7.78;;;4.40;73.30;;;;;;4996545;28;20039;-63
2022/12/03 09:12:42;;;;;;;12.30;8.07;;;4.40;73.30;;;;;;5005563;28;20031;-63
2022/12/03 09:15:08;;;;;;;17.65;9.63;;;4.40;73.20;;;;;;5002654;28;20033;-63
2022/12/03 09:17:33;;;;;;;19.30;9.75;;;4.40;73.20;;;;;;4993645;28;20038;-60
2022/12/03 09:19:59;;;;;;;19.73;9.40;;;4.40;73.20;;;;;;4993153;28;20042;-61
2022/12/03 09:22:25;;;;;;;24.48;9.82;;;4.30;73.30;;;;;;5000165;28;20037;-61
2022/12/03 09:24:50;;;;;;;15.57;7.68;;;4.40;73.40;;;;;;5007163;28;20037;-60
2022/12/03 09:27:16;;;;;;;23.58;8.63;;;4.40;73.30;;;;;;5001231;28;20376;-60
2022/12/03 09:29:42;;;;;;;21.67;10.52;;;4.40;73.20;;;;;;5002057;28;20038;-61
2022/12/03 09:32:08;;;;;;;13.98;8.15;;;4.40;73.20;;;;;;4998112;28;20077;-61
2022/12/03 09:34:33;;;;;;;13.43;7.45;;;4.40;73.30;;;;;;4997427;28;20042;-60
2022/12/03 09:37:00;;;;;;;16.58;8.70;;;4.40;73.40;;;;;;4993826;28;20535;-61
2022/12/03 09:39:26;;;;;;;16.40;9.98;;;4.30;73.30;;;;;;4996816;28;20072;-61
2022/12/03 09:41:52;;;;;;;11.38;6.65;;;4.40;73.40;;;;;;5023966;28;20022;-61
2022/12/03 09:44:18;;;;;;;12.65;8.15;;;4.40;73.40;;;;;;4990180;28;20046;-61
2022/12/03 09:46:45;;;;;;;14.20;8.20;;;4.30;73.40;;;;;;4997833;28;20034;-61
2022/12/03 09:49:14;;;;;;;9.88;6.32;;;4.40;73.40;;;;;;4995982;28;20027;-61
2022/12/03 09:51:39;;;;;;;17.23;6.63;;;4.30;73.40;;;;;;4994523;28;20420;-63
2022/12/03 09:54:06;;;;;;;12.00;7.22;;;4.40;73.40;;;;;;4998812;28;20033;-63
2022/12/03 09:56:34;;;;;;;14.85;6.47;;;4.40;73.30;;;;;;4999153;28;20391;-63
2022/12/03 09:59:00;;;;;;;12.07;6.10;;;4.40;73.10;;;;;;5025415;28;20038;-63
2022/12/03 10:01:25;;;;;;;9.52;5.90;;;4.40;73.00;;;;;;4998989;28;20370;-63
2022/12/03 10:03:52;;;;;;;13.88;6.97;;;4.40;73.10;;;;;;5025517;28;20034;-63
2022/12/03 10:06:22;;;;;;;8.63;5.38;;;4.50;73.10;;;;;;4997889;28;20037;-63
2022/12/03 10:08:50;;;;;;;10.95;5.97;;;4.50;73.00;;;;;;5000605;28;20088;-63
2022/12/03 10:11:20;;;;;;;9.93;5.18;;;4.50;72.90;;;;;;4992043;28;20053;-63
2022/12/03 10:13:46;;;;;;;10.25;5.80;;;4.50;72.80;;;;;;4996149;28;20053;-63
2022/12/03 10:16:16;;;;;;;10.60;5.95;;;4.50;72.80;;;;;;4999817;28;20038;-63
2022/12/03 10:18:49;;;;;;;12.57;6.05;;;4.50;72.80;;;;;;4998707;28;20022;-62
2022/12/03 10:21:37;;;;;;;9.45;5.65;;;4.50;72.90;;;;;;4994411;28;20026;-63
2022/12/03 10:24:24;;;;;;;13.23;7.00;;;4.40;72.80;;;;;;4994113;28;20054;-63
2022/12/03 10:26:51;;;;;;;12.75;7.18;;;4.40;72.90;;;;;;5001336;28;20049;-63
2022/12/03 10:29:20;;;;;;;11.75;6.18;;;4.40;73.10;;;;;;4996921;28;20028;-63
2022/12/03 10:32:11;;;;;;;10.93;6.30;;;4.40;73.10;;;;;;4995962;28;20030;-63
2022/12/03 10:34:41;;;;;;;12.40;6.00;;;4.40;73.20;;;;;;5012179;28;20065;-63
2022/12/03 10:37:16;;;;;;;12.15;7.20;;;4.40;73.40;;;;;;5011010;28;20539;-63
2022/12/03 10:40:07;;;;;;;16.20;7.95;;;4.40;73.30;;;;;;4998661;28;20049;-63
2022/12/03 10:42:38;;;;;;;16.10;6.93;;;4.40;73.20;;;;;;4992156;28;20080;-63
2022/12/03 10:45:11;;;;;;;10.32;6.65;;;4.40;73.40;;;;;;5011257;28;20099;-63
2022/12/03 10:47:36;;;;;;;11.98;6.82;;;4.40;73.40;;;;;;4993442;28;20033;-63
2022/12/03 10:50:05;;;;;;;12.90;6.05;;;4.40;73.30;;;;;;5008742;28;20037;-63
2022/12/03 10:52:31;;;;;;;11.30;5.30;;;4.40;73.30;;;;;;5008786;28;20022;-63
2022/12/03 10:54:57;;;;;;;8.85;5.47;;;4.40;73.30;;;;;;5009976;28;20034;-62
2022/12/03 10:57:24;;;;;;;10.68;6.22;;;4.40;73.30;;;;;;5004708;28;20030;-63
2022/12/03 10:59:49;;;;;;;8.90;5.95;;;4.40;73.40;;;;;;5009578;28;20039;-64
2022/12/03 11:02:21;;;;;;;9.38;5.47;;;4.40;73.50;;;;;;5011504;28;20389;-63
2022/12/03 11:04:48;;;;;;;12.50;5.90;;;4.40;73.50;;;;;;5008028;28;20077;-62
2022/12/03 11:07:18;;;;;;;10.25;6.55;;;4.40;73.50;;;;;;4992336;28;20591;-62
2022/12/03 11:09:46;;;;;;;14.70;6.00;;;4.40;73.50;;;;;;4992371;28;20029;-62
2022/12/03 11:12:34;;;;;;;13.55;6.60;;;4.40;73.60;;;;;;5023553;28;20130;-62
2022/12/03 11:15:05;;;;;;;12.60;6.43;;;4.40;73.50;;;;;;4992109;28;20026;-62
2022/12/03 11:17:53;;;;;;;8.82;5.00;;;4.40;73.70;;;;;;5004226;28;20037;-62
2022/12/03 11:20:19;;;;;;;12.20;4.95;;;4.40;73.70;;;;;;4988551;28;20101;-62
2022/12/03 11:22:49;;;;;;;10.70;5.80;;;4.30;73.80;;;;;;4992749;28;20429;-62
2022/12/03 11:25:24;;;;;;;10.95;6.65;;;4.30;73.90;;;;;;5000747;28;20026;-62
2022/12/03 11:28:11;;;;;;;7.95;4.55;;;4.30;74.00;;;;;;5001008;28;20129;-60
2022/12/03 11:30:49;;;;;;;6.80;5.63;;;4.30;74.00;;;;;;4996688;28;20034;-61
2022/12/03 11:33:38;;;;;;;8.73;5.15;;;4.30;74.10;;;;;;4991939;28;20030;-60
2022/12/03 11:36:04;;;;;;;8.93;5.45;;;4.30;74.10;;;;;;4998649;28;20026;-60
2022/12/03 11:38:51;;;;;;;10.27;6.35;;;4.20;74.30;;;;;;5007167;28;20036;-60
2022/12/03 11:41:18;;;;;;;9.52;4.93;;;4.30;74.30;;;;;;5002378;28;20038;-60
2022/12/03 11:43:56;;;;;;;11.52;5.70;;;4.20;74.40;;;;;;5009905;28;20440;-60
2022/12/03 11:46:21;;;;;;;11.27;6.20;;;4.30;74.30;;;;;;5002120;28;20034;-61
2022/12/03 11:48:50;;;;;;;10.55;5.35;;;4.30;74.40;;;;;;5008717;28;20523;-61
2022/12/03 11:51:18;;;;;;;10.48;5.22;;;4.30;74.30;;;;;;4993419;28;20034;-61
2022/12/03 11:53:45;;;;;;;15.27;5.63;;;4.30;74.40;;;;;;5000276;28;20416;-61
2022/12/03 11:56:17;;;;;;;9.60;4.85;;;4.20;74.40;;;;;;5001982;28;20484;-61
2022/12/03 11:58:44;;;;;;;8.20;4.93;;;4.30;74.40;;;;;;5009268;28;20140;-61
2022/12/03 12:01:12;;;;;;;11.02;5.97;;;4.30;74.40;;;;;;5007656;28;20169;-61
2022/12/03 12:03:43;;;;;;;9.55;6.20;;;4.30;74.40;;;;;;5008076;28;20030;-61
2022/12/03 12:06:14;;;;;;;15.43;6.93;;;4.30;74.50;;;;;;4999960;28;20464;-63
2022/12/03 12:08:55;;;;;;;11.75;6.57;;;4.30;74.50;;;;;;5009808;28;20501;-63
2022/12/03 12:11:35;;;;;;;10.18;5.55;;;4.20;74.40;;;;;;4988623;28;20157;-63
2022/12/03 12:14:09;;;;;;;10.52;6.07;;;4.20;74.50;;;;;;5003911;28;20037;-63
2022/12/03 12:16:40;;;;;;;7.00;5.78;;;4.20;74.70;;;;;;5007447;28;20026;-63
2022/12/03 12:19:27;;;;;;;11.30;6.28;;;4.20;74.70;;;;;;5008187;28;20029;-63
2022/12/03 12:21:53;;;;;;;13.13;5.88;;;4.30;74.60;;;;;;4987134;28;20461;-63
2022/12/03 12:24:50;;;;;;;12.10;5.65;;;4.20;74.60;;;;;;4995874;28;20029;-63
2022/12/03 12:27:20;;;;;;;14.10;7.07;;;4.20;74.50;;;;;;5007562;28;20022;-62
2022/12/03 12:29:52;;;;;;;12.52;6.15;;;4.20;74.80;;;;;;5001557;28;20033;-62
2022/12/03 12:32:21;;;;;;;15.82;7.30;;;4.20;74.70;;;;;;5004690;28;20022;-62
2022/12/03 12:34:55;;;;;;;12.68;7.30;;;4.20;74.70;;;;;;5007634;28;20037;-62
2022/12/03 12:37:38;;;;;;;11.40;6.75;;;4.30;74.70;;;;;;5005986;28;20045;-62
2022/12/03 12:40:16;;;;;;;14.75;6.68;;;4.30;74.60;;;;;;5007971;28;20128;-62
2022/12/03 12:42:56;;;;;;;14.50;7.07;;;4.20;74.70;;;;;;4988157;28;20034;-63
2022/12/03 12:45:24;;;;;;;21.30;7.57;;;4.20;74.80;;;;;;4982820;28;20018;-63
2022/12/03 12:48:08;;;;;;;16.10;8.00;;;4.20;74.90;;;;;;4990721;28;20126;-64
2022/12/03 12:50:35;;;;;;;12.15;7.47;;;4.20;74.90;;;;;;4987088;28;20061;-63
2022/12/03 12:53:15;;;;;;;12.55;6.40;;;4.20;74.90;;;;;;4993228;28;20518;-64
2022/12/03 12:55:40;;;;;;;27.05;8.70;;;4.30;74.80;;;;;;4986275;28;20042;-64
2022/12/03 12:58:18;;;;;;;18.10;9.25;;;4.30;74.90;;;;;;4989320;28;20046;-64
2022/12/03 13:00:52;;;;;;;13.55;8.48;;;4.30;74.70;;;;;;4990667;28;20061;-65
2022/12/03 13:03:22;;;;;;;13.70;8.80;;;4.30;74.70;;;;;;4988272;28;20027;-65
2022/12/03 13:05:50;;;;;;;14.60;7.85;;;4.30;74.70;;;;;;4991540;28;20030;-62
2022/12/03 13:08:36;;;;;;;22.45;9.05;;;4.30;74.70;;;;;;4989408;28;20027;-62
2022/12/03 13:11:02;;;;;;;23.55;8.60;;;4.40;74.60;;;;;;4987489;28;20390;-63
2022/12/03 13:13:38;;;;;;;16.48;8.95;;;4.30;74.80;;;;;;4989149;28;20049;-63
2022/12/03 13:16:16;;;;;;;13.82;8.48;;;4.30;74.80;;;;;;4990976;28;20526;-62
2022/12/03 13:18:48;;;;;;;13.25;8.38;;;4.20;74.80;;;;;;5023100;28;20033;-62
2022/12/03 13:21:38;;;;;;;20.27;8.05;;;4.20;74.80;;;;;;4980724;28;20073;-63
2022/12/03 13:24:42;;;;;;;14.88;7.30;;;4.20;74.90;;;;;;4997944;28;20609;-63
2022/12/03 13:27:17;;;;;;;19.27;8.55;;;4.20;74.90;;;;;;4996261;28;20021;-62
2022/12/03 13:29:47;;;;;;;11.63;7.15;;;4.10;75.00;;;;;;5008970;28;20388;-63